aviador You're here:

KLPR Decoded Metar

LORAIN/ELYRIA in OH, USA
Report Time2017-04-27 23:53:00
UTC Time2017-04-28 00:23:27
Flight Rules vfr VFR
Wind270° at 19 Gusting to 23 kt
W.Decomp.*RWY 25: 17.4 kt HW 7.7 kt RCW
W.Rank270° ranks 5
Current wind is above 270° avg. (9.5)
Visibility9999 m
Phenomena:N/A
Clouds:N/A
Expected CloudBase > 4,000 ft AGL from Temp-Dew spread
CeilingNone
Temp16°C (ISA +3)
Dew Point06°C (52% RH)
AAT8.3°C
QNH1007 hPa
Density Alt1,427 ft
Elevation791 ft
Report Wrong Elevation
Raw Report
METAR KLPR 272353Z AUTO 27019G23KT 10SM CLR 16/06 A2973 RMK AO2 PK
WND 28027/2326 SLP064 60000 T01610061 10239 20161 53034=

Extra information for KLPR:More info

Metar Taf Metar & Taf Last 4 Metars F.Rules Stats Wind Profile Meteogram Temp Stats Airport Information Weather charts Add Link Nearby VenuesMetar ALERT Operation Metar Decoded Social comments

AIRNAV info for KLPR